sensor_id;sensor_type;location;lat;lon;timestamp;P1;durP1;ratioP1;P2;durP2;ratioP2
938;SDS011;456;53.584;9.968;2022-08-21T00:00:25;3.10;;;2.00;;
938;SDS011;456;53.584;9.968;2022-08-21T00:02:53;1.80;;;1.60;;
938;SDS011;456;53.584;9.968;2022-08-21T00:05:21;2.90;;;1.80;;
938;SDS011;456;53.584;9.968;2022-08-21T00:07:47;3.30;;;2.07;;
938;SDS011;456;53.584;9.968;2022-08-21T00:10:13;2.40;;;2.20;;
938;SDS011;456;53.584;9.968;2022-08-21T00:12:39;1.87;;;1.70;;
938;SDS011;456;53.584;9.968;2022-08-21T00:15:06;2.30;;;1.87;;
938;SDS011;456;53.584;9.968;2022-08-21T00:17:33;3.23;;;2.20;;
938;SDS011;456;53.584;9.968;2022-08-21T00:19:58;3.03;;;2.30;;
938;SDS011;456;53.584;9.968;2022-08-21T00:22:24;2.27;;;1.83;;
938;SDS011;456;53.584;9.968;2022-08-21T00:24:50;2.30;;;1.67;;
938;SDS011;456;53.584;9.968;2022-08-21T00:27:15;2.80;;;1.90;;
938;SDS011;456;53.584;9.968;2022-08-21T00:29:41;2.70;;;1.93;;
938;SDS011;456;53.584;9.968;2022-08-21T00:32:06;2.27;;;2.00;;
938;SDS011;456;53.584;9.968;2022-08-21T00:34:32;3.00;;;2.80;;
938;SDS011;456;53.584;9.968;2022-08-21T00:36:57;2.00;;;1.70;;
938;SDS011;456;53.584;9.968;2022-08-21T00:39:23;3.43;;;1.90;;
938;SDS011;456;53.584;9.968;2022-08-21T00:41:49;2.70;;;2.10;;
938;SDS011;456;53.584;9.968;2022-08-21T00:44:15;1.93;;;1.73;;
938;SDS011;456;53.584;9.968;2022-08-21T00:46:41;4.00;;;2.17;;
938;SDS011;456;53.584;9.968;2022-08-21T00:49:08;2.50;;;1.97;;
938;SDS011;456;53.584;9.968;2022-08-21T00:51:38;5.17;;;2.00;;
938;SDS011;456;53.584;9.968;2022-08-21T00:54:08;2.30;;;2.10;;
938;SDS011;456;53.584;9.968;2022-08-21T00:56:35;2.67;;;2.13;;
938;SDS011;456;53.584;9.968;2022-08-21T00:59:02;1.87;;;1.77;;
938;SDS011;456;53.584;9.968;2022-08-21T01:01:28;3.20;;;2.40;;
938;SDS011;456;53.584;9.968;2022-08-21T01:03:54;2.07;;;1.87;;
938;SDS011;456;53.584;9.968;2022-08-21T01:06:20;2.27;;;2.07;;
938;SDS011;456;53.584;9.968;2022-08-21T01:08:45;2.17;;;1.97;;
938;SDS011;456;53.584;9.968;2022-08-21T01:11:11;1.77;;;1.67;;
938;SDS011;456;53.584;9.968;2022-08-21T01:13:38;2.23;;;2.03;;
938;SDS011;456;53.584;9.968;2022-08-21T01:16:10;1.90;;;1.80;;
938;SDS011;456;53.584;9.968;2022-08-21T01:18:38;2.90;;;2.40;;
938;SDS011;456;53.584;9.968;2022-08-21T01:21:08;2.20;;;2.00;;
938;SDS011;456;53.584;9.968;2022-08-21T01:23:41;2.07;;;1.83;;
938;SDS011;456;53.584;9.968;2022-08-21T01:26:09;2.00;;;1.70;;
938;SDS011;456;53.584;9.968;2022-08-21T01:28:38;2.63;;;2.43;;
938;SDS011;456;53.584;9.968;2022-08-21T01:31:08;2.83;;;2.10;;
938;SDS011;456;53.584;9.968;2022-08-21T01:33:38;2.40;;;2.17;;
938;SDS011;456;53.584;9.968;2022-08-21T01:36:04;1.60;;;1.50;;
938;SDS011;456;53.584;9.968;2022-08-21T01:38:30;2.67;;;2.00;;
938;SDS011;456;53.584;9.968;2022-08-21T01:40:57;2.60;;;2.10;;
938;SDS011;456;53.584;9.968;2022-08-21T01:43:23;2.70;;;1.90;;
938;SDS011;456;53.584;9.968;2022-08-21T01:45:48;2.30;;;1.80;;
938;SDS011;456;53.584;9.968;2022-08-21T01:48:14;2.30;;;2.10;;
938;SDS011;456;53.584;9.968;2022-08-21T01:50:40;2.40;;;1.80;;
938;SDS011;456;53.584;9.968;2022-08-21T01:53:05;2.00;;;1.80;;
938;SDS011;456;53.584;9.968;2022-08-21T01:55:31;4.23;;;1.97;;
938;SDS011;456;53.584;9.968;2022-08-21T01:57:57;2.30;;;2.10;;
938;SDS011;456;53.584;9.968;2022-08-21T02:00:23;2.30;;;2.10;;
938;SDS011;456;53.584;9.968;2022-08-21T02:02:50;2.17;;;1.97;;
938;SDS011;456;53.584;9.968;2022-08-21T02:05:16;5.60;;;2.70;;
938;SDS011;456;53.584;9.968;2022-08-21T02:07:45;2.93;;;2.67;;
938;SDS011;456;53.584;9.968;2022-08-21T02:10:14;2.33;;;2.13;;
938;SDS011;456;53.584;9.968;2022-08-21T02:12:43;3.27;;;2.40;;
938;SDS011;456;53.584;9.968;2022-08-21T02:15:09;2.87;;;2.57;;
938;SDS011;456;53.584;9.968;2022-08-21T02:17:43;2.40;;;1.80;;
938;SDS011;456;53.584;9.968;2022-08-21T02:20:09;2.63;;;1.93;;
938;SDS011;456;53.584;9.968;2022-08-21T02:22:36;2.87;;;2.67;;
938;SDS011;456;53.584;9.968;2022-08-21T02:25:02;2.33;;;1.80;;
938;SDS011;456;53.584;9.968;2022-08-21T02:27:28;1.87;;;1.63;;
938;SDS011;456;53.584;9.968;2022-08-21T02:29:55;2.17;;;1.93;;
938;SDS011;456;53.584;9.968;2022-08-21T02:32:21;4.00;;;2.50;;
938;SDS011;456;53.584;9.968;2022-08-21T02:34:47;2.87;;;2.37;;
938;SDS011;456;53.584;9.968;2022-08-21T02:37:13;2.80;;;2.50;;
938;SDS011;456;53.584;9.968;2022-08-21T02:39:39;4.50;;;2.40;;
938;SDS011;456;53.584;9.968;2022-08-21T02:42:05;3.00;;;1.93;;
938;SDS011;456;53.584;9.968;2022-08-21T02:44:30;4.70;;;2.33;;
938;SDS011;456;53.584;9.968;2022-08-21T02:46:56;2.33;;;2.13;;
938;SDS011;456;53.584;9.968;2022-08-21T02:49:21;2.33;;;2.20;;
938;SDS011;456;53.584;9.968;2022-08-21T02:51:47;3.03;;;2.20;;
938;SDS011;456;53.584;9.968;2022-08-21T02:54:13;1.93;;;1.77;;
938;SDS011;456;53.584;9.968;2022-08-21T02:56:38;2.60;;;2.30;;
938;SDS011;456;53.584;9.968;2022-08-21T02:59:04;2.10;;;1.93;;
938;SDS011;456;53.584;9.968;2022-08-21T03:01:29;2.80;;;2.20;;
938;SDS011;456;53.584;9.968;2022-08-21T03:03:55;2.27;;;2.07;;
938;SDS011;456;53.584;9.968;2022-08-21T03:06:23;2.60;;;2.40;;
938;SDS011;456;53.584;9.968;2022-08-21T03:08:49;2.53;;;2.10;;
938;SDS011;456;53.584;9.968;2022-08-21T03:11:16;2.30;;;2.10;;
938;SDS011;456;53.584;9.968;2022-08-21T03:13:42;2.50;;;2.10;;
938;SDS011;456;53.584;9.968;2022-08-21T03:16:08;2.90;;;2.60;;
938;SDS011;456;53.584;9.968;2022-08-21T03:18:34;2.23;;;2.03;;
938;SDS011;456;53.584;9.968;2022-08-21T03:21:00;3.10;;;2.27;;
938;SDS011;456;53.584;9.968;2022-08-21T03:23:26;3.63;;;2.70;;
938;SDS011;456;53.584;9.968;2022-08-21T03:25:51;3.90;;;2.20;;
938;SDS011;456;53.584;9.968;2022-08-21T03:28:19;2.13;;;1.93;;
938;SDS011;456;53.584;9.968;2022-08-21T03:30:47;2.20;;;2.00;;
938;SDS011;456;53.584;9.968;2022-08-21T03:33:14;3.90;;;2.40;;
938;SDS011;456;53.584;9.968;2022-08-21T03:35:41;2.47;;;2.23;;
938;SDS011;456;53.584;9.968;2022-08-21T03:38:09;2.70;;;2.07;;
938;SDS011;456;53.584;9.968;2022-08-21T03:40:35;2.70;;;2.10;;
938;SDS011;456;53.584;9.968;2022-08-21T03:43:00;2.53;;;2.00;;
938;SDS011;456;53.584;9.968;2022-08-21T03:45:26;2.30;;;2.10;;
938;SDS011;456;53.584;9.968;2022-08-21T03:48:00;2.30;;;2.10;;
938;SDS011;456;53.584;9.968;2022-08-21T03:50:31;2.77;;;2.20;;
938;SDS011;456;53.584;9.968;2022-08-21T03:52:58;2.47;;;2.10;;
938;SDS011;456;53.584;9.968;2022-08-21T03:55:24;6.10;;;2.60;;
938;SDS011;456;53.584;9.968;2022-08-21T03:57:50;3.03;;;2.70;;
938;SDS011;456;53.584;9.968;2022-08-21T04:00:17;4.50;;;2.70;;
938;SDS011;456;53.584;9.968;2022-08-21T04:02:44;2.50;;;2.10;;
938;SDS011;456;53.584;9.968;2022-08-21T04:05:13;2.77;;;2.20;;
938;SDS011;456;53.584;9.968;2022-08-21T04:07:51;2.57;;;2.03;;
938;SDS011;456;53.584;9.968;2022-08-21T04:10:28;3.50;;;1.90;;
938;SDS011;456;53.584;9.968;2022-08-21T04:12:55;2.70;;;1.87;;
938;SDS011;456;53.584;9.968;2022-08-21T04:15:21;3.77;;;1.90;;
938;SDS011;456;53.584;9.968;2022-08-21T04:17:48;3.40;;;2.23;;
938;SDS011;456;53.584;9.968;2022-08-21T04:20:14;4.57;;;2.17;;
938;SDS011;456;53.584;9.968;2022-08-21T04:22:41;2.90;;;2.10;;
938;SDS011;456;53.584;9.968;2022-08-21T04:25:07;2.27;;;1.97;;
938;SDS011;456;53.584;9.968;2022-08-21T04:27:33;3.63;;;2.03;;
938;SDS011;456;53.584;9.968;2022-08-21T04:29:59;2.10;;;1.83;;
938;SDS011;456;53.584;9.968;2022-08-21T04:32:26;2.20;;;2.00;;
938;SDS011;456;53.584;9.968;2022-08-21T04:34:58;3.33;;;1.90;;
938;SDS011;456;53.584;9.968;2022-08-21T04:37:26;2.07;;;1.80;;
938;SDS011;456;53.584;9.968;2022-08-21T04:39:51;2.20;;;1.83;;
938;SDS011;456;53.584;9.968;2022-08-21T04:42:17;2.73;;;2.00;;
938;SDS011;456;53.584;9.968;2022-08-21T04:44:43;2.20;;;2.00;;
938;SDS011;456;53.584;9.968;2022-08-21T04:47:08;1.77;;;1.50;;
938;SDS011;456;53.584;9.968;2022-08-21T04:49:34;3.97;;;1.60;;
938;SDS011;456;53.584;9.968;2022-08-21T04:52:00;3.10;;;1.77;;
938;SDS011;456;53.584;9.968;2022-08-21T04:54:26;2.13;;;1.80;;
938;SDS011;456;53.584;9.968;2022-08-21T04:56:53;2.10;;;1.90;;
938;SDS011;456;53.584;9.968;2022-08-21T04:59:25;4.17;;;1.57;;
938;SDS011;456;53.584;9.968;2022-08-21T05:01:56;2.03;;;1.83;;
938;SDS011;456;53.584;9.968;2022-08-21T05:04:23;3.33;;;2.03;;
938;SDS011;456;53.584;9.968;2022-08-21T05:06:50;1.43;;;1.33;;
938;SDS011;456;53.584;9.968;2022-08-21T05:09:19;1.70;;;1.60;;
938;SDS011;456;53.584;9.968;2022-08-21T05:11:46;2.40;;;1.93;;
938;SDS011;456;53.584;9.968;2022-08-21T05:14:13;1.57;;;1.47;;
938;SDS011;456;53.584;9.968;2022-08-21T05:16:39;2.00;;;1.80;;
938;SDS011;456;53.584;9.968;2022-08-21T05:19:06;2.23;;;1.60;;
938;SDS011;456;53.584;9.968;2022-08-21T05:21:36;3.13;;;1.83;;
938;SDS011;456;53.584;9.968;2022-08-21T05:24:04;2.83;;;1.70;;
938;SDS011;456;53.584;9.968;2022-08-21T05:26:30;1.50;;;1.40;;
938;SDS011;456;53.584;9.968;2022-08-21T05:28:56;2.60;;;2.00;;
938;SDS011;456;53.584;9.968;2022-08-21T05:31:22;2.50;;;1.83;;
938;SDS011;456;53.584;9.968;2022-08-21T05:33:48;2.13;;;1.90;;
938;SDS011;456;53.584;9.968;2022-08-21T05:36:13;1.80;;;1.70;;
938;SDS011;456;53.584;9.968;2022-08-21T05:38:39;2.10;;;1.90;;
938;SDS011;456;53.584;9.968;2022-08-21T05:41:05;1.40;;;1.30;;
938;SDS011;456;53.584;9.968;2022-08-21T05:43:32;2.03;;;1.83;;
938;SDS011;456;53.584;9.968;2022-08-21T05:46:01;2.20;;;1.80;;
938;SDS011;456;53.584;9.968;2022-08-21T05:48:31;2.40;;;1.87;;
938;SDS011;456;53.584;9.968;2022-08-21T05:50:57;1.90;;;1.77;;
938;SDS011;456;53.584;9.968;2022-08-21T05:53:28;2.03;;;1.83;;
938;SDS011;456;53.584;9.968;2022-08-21T05:55:54;2.23;;;2.07;;
938;SDS011;456;53.584;9.968;2022-08-21T05:58:20;2.23;;;2.03;;
938;SDS011;456;53.584;9.968;2022-08-21T06:00:48;1.80;;;1.70;;
938;SDS011;456;53.584;9.968;2022-08-21T06:03:20;2.40;;;2.20;;
938;SDS011;456;53.584;9.968;2022-08-21T06:05:48;1.97;;;1.50;;
938;SDS011;456;53.584;9.968;2022-08-21T06:08:15;1.87;;;1.77;;
938;SDS011;456;53.584;9.968;2022-08-21T06:10:42;2.50;;;2.30;;
938;SDS011;456;53.584;9.968;2022-08-21T06:13:08;2.23;;;1.90;;
938;SDS011;456;53.584;9.968;2022-08-21T06:15:35;4.60;;;2.30;;
938;SDS011;456;53.584;9.968;2022-08-21T06:18:01;2.40;;;2.17;;
938;SDS011;456;53.584;9.968;2022-08-21T06:20:26;1.83;;;1.70;;
938;SDS011;456;53.584;9.968;2022-08-21T06:22:52;2.03;;;1.90;;
938;SDS011;456;53.584;9.968;2022-08-21T06:25:18;3.73;;;2.13;;
938;SDS011;456;53.584;9.968;2022-08-21T06:27:44;2.60;;;1.90;;
938;SDS011;456;53.584;9.968;2022-08-21T06:30:10;1.90;;;1.73;;
938;SDS011;456;53.584;9.968;2022-08-21T06:32:36;2.33;;;1.80;;
938;SDS011;456;53.584;9.968;2022-08-21T06:35:02;2.20;;;2.00;;
938;SDS011;456;53.584;9.968;2022-08-21T06:37:28;2.37;;;2.17;;
938;SDS011;456;53.584;9.968;2022-08-21T06:39:54;2.30;;;2.10;;
938;SDS011;456;53.584;9.968;2022-08-21T06:42:19;1.77;;;1.60;;
938;SDS011;456;53.584;9.968;2022-08-21T06:44:45;2.10;;;1.90;;
938;SDS011;456;53.584;9.968;2022-08-21T06:47:11;2.20;;;2.00;;
938;SDS011;456;53.584;9.968;2022-08-21T06:49:36;2.57;;;2.37;;
938;SDS011;456;53.584;9.968;2022-08-21T06:52:02;2.10;;;1.80;;
938;SDS011;456;53.584;9.968;2022-08-21T06:54:28;2.83;;;2.17;;
938;SDS011;456;53.584;9.968;2022-08-21T06:56:55;1.83;;;1.73;;
938;SDS011;456;53.584;9.968;2022-08-21T06:59:21;2.77;;;2.57;;
938;SDS011;456;53.584;9.968;2022-08-21T07:01:46;2.43;;;2.10;;
938;SDS011;456;53.584;9.968;2022-08-21T07:04:12;2.43;;;1.63;;
938;SDS011;456;53.584;9.968;2022-08-21T07:06:38;2.40;;;2.00;;
938;SDS011;456;53.584;9.968;2022-08-21T07:09:04;2.00;;;1.80;;
938;SDS011;456;53.584;9.968;2022-08-21T07:11:30;3.07;;;2.10;;
938;SDS011;456;53.584;9.968;2022-08-21T07:13:55;3.13;;;1.93;;
938;SDS011;456;53.584;9.968;2022-08-21T07:16:21;2.67;;;2.07;;
938;SDS011;456;53.584;9.968;2022-08-21T07:18:47;2.53;;;2.13;;
938;SDS011;456;53.584;9.968;2022-08-21T07:21:14;2.20;;;1.90;;
938;SDS011;456;53.584;9.968;2022-08-21T07:23:42;2.20;;;1.90;;
938;SDS011;456;53.584;9.968;2022-08-21T07:26:10;3.67;;;2.20;;
938;SDS011;456;53.584;9.968;2022-08-21T07:28:37;2.30;;;2.00;;
938;SDS011;456;53.584;9.968;2022-08-21T07:31:03;2.90;;;2.03;;
938;SDS011;456;53.584;9.968;2022-08-21T07:33:29;2.10;;;2.00;;
938;SDS011;456;53.584;9.968;2022-08-21T07:35:56;2.50;;;2.30;;
938;SDS011;456;53.584;9.968;2022-08-21T07:38:22;2.87;;;2.67;;
938;SDS011;456;53.584;9.968;2022-08-21T07:40:48;2.73;;;2.50;;
938;SDS011;456;53.584;9.968;2022-08-21T07:43:15;4.63;;;2.53;;
938;SDS011;456;53.584;9.968;2022-08-21T07:45:42;5.87;;;2.97;;
938;SDS011;456;53.584;9.968;2022-08-21T07:48:08;3.70;;;2.00;;
938;SDS011;456;53.584;9.968;2022-08-21T07:50:34;3.37;;;2.20;;
938;SDS011;456;53.584;9.968;2022-08-21T07:53:00;3.43;;;2.60;;
938;SDS011;456;53.584;9.968;2022-08-21T07:55:27;8.70;;;3.07;;
938;SDS011;456;53.584;9.968;2022-08-21T07:57:53;5.07;;;2.83;;
938;SDS011;456;53.584;9.968;2022-08-21T08:00:20;2.80;;;2.23;;
938;SDS011;456;53.584;9.968;2022-08-21T08:02:48;5.13;;;2.90;;
938;SDS011;456;53.584;9.968;2022-08-21T08:05:16;2.73;;;2.40;;
938;SDS011;456;53.584;9.968;2022-08-21T08:07:44;4.03;;;2.77;;
938;SDS011;456;53.584;9.968;2022-08-21T08:10:09;2.73;;;2.53;;
938;SDS011;456;53.584;9.968;2022-08-21T08:12:36;3.20;;;2.90;;
938;SDS011;456;53.584;9.968;2022-08-21T08:15:05;6.77;;;2.90;;
938;SDS011;456;53.584;9.968;2022-08-21T08:17:32;3.20;;;2.43;;
938;SDS011;456;53.584;9.968;2022-08-21T08:19:59;3.00;;;2.27;;
938;SDS011;456;53.584;9.968;2022-08-21T08:22:28;4.10;;;2.53;;
938;SDS011;456;53.584;9.968;2022-08-21T08:24:54;3.63;;;2.70;;
938;SDS011;456;53.584;9.968;2022-08-21T08:27:20;3.83;;;2.40;;
938;SDS011;456;53.584;9.968;2022-08-21T08:29:46;4.00;;;2.60;;
938;SDS011;456;53.584;9.968;2022-08-21T08:32:12;4.20;;;2.40;;
938;SDS011;456;53.584;9.968;2022-08-21T08:34:39;4.00;;;2.70;;
938;SDS011;456;53.584;9.968;2022-08-21T08:37:05;5.17;;;2.90;;
938;SDS011;456;53.584;9.968;2022-08-21T08:39:33;5.80;;;3.23;;
938;SDS011;456;53.584;9.968;2022-08-21T08:42:01;6.17;;;3.23;;
938;SDS011;456;53.584;9.968;2022-08-21T08:44:32;5.13;;;2.70;;
938;SDS011;456;53.584;9.968;2022-08-21T08:46:58;8.20;;;3.97;;
938;SDS011;456;53.584;9.968;2022-08-21T08:49:31;7.83;;;4.17;;
938;SDS011;456;53.584;9.968;2022-08-21T08:52:03;6.53;;;3.37;;
938;SDS011;456;53.584;9.968;2022-08-21T08:55:10;9.00;;;3.23;;
938;SDS011;456;53.584;9.968;2022-08-21T08:57:44;8.00;;;4.00;;
938;SDS011;456;53.584;9.968;2022-08-21T09:00:12;5.47;;;3.73;;
938;SDS011;456;53.584;9.968;2022-08-21T09:02:40;8.63;;;3.70;;
938;SDS011;456;53.584;9.968;2022-08-21T09:05:07;7.27;;;3.63;;
938;SDS011;456;53.584;9.968;2022-08-21T09:10:26;5.77;;;2.90;;
938;SDS011;456;53.584;9.968;2022-08-21T09:21:47;4.00;;;3.43;;
938;SDS011;456;53.584;9.968;2022-08-21T09:29:31;4.43;;;3.60;;
938;SDS011;456;53.584;9.968;2022-08-21T09:32:18;3.50;;;3.20;;
938;SDS011;456;53.584;9.968;2022-08-21T09:34:55;4.20;;;3.30;;
938;SDS011;456;53.584;9.968;2022-08-21T09:37:55;4.60;;;3.37;;
938;SDS011;456;53.584;9.968;2022-08-21T09:40:39;3.00;;;2.70;;
938;SDS011;456;53.584;9.968;2022-08-21T09:45:36;4.80;;;3.60;;
938;SDS011;456;53.584;9.968;2022-08-21T09:50:39;5.93;;;3.63;;
938;SDS011;456;53.584;9.968;2022-08-21T09:53:13;3.10;;;2.90;;
938;SDS011;456;53.584;9.968;2022-08-21T09:55:52;4.87;;;3.40;;
938;SDS011;456;53.584;9.968;2022-08-21T09:58:41;3.87;;;3.07;;
938;SDS011;456;53.584;9.968;2022-08-21T10:01:14;3.37;;;3.07;;
938;SDS011;456;53.584;9.968;2022-08-21T10:03:42;2.97;;;2.57;;
938;SDS011;456;53.584;9.968;2022-08-21T10:06:09;4.93;;;2.93;;
938;SDS011;456;53.584;9.968;2022-08-21T10:08:39;3.13;;;2.80;;
938;SDS011;456;53.584;9.968;2022-08-21T10:21:33;4.03;;;2.77;;
938;SDS011;456;53.584;9.968;2022-08-21T10:35:48;2.90;;;2.50;;
938;SDS011;456;53.584;9.968;2022-08-21T10:44:08;4.10;;;2.80;;
938;SDS011;456;53.584;9.968;2022-08-21T10:47:01;2.73;;;2.53;;
938;SDS011;456;53.584;9.968;2022-08-21T10:54:52;4.20;;;2.60;;
938;SDS011;456;53.584;9.968;2022-08-21T10:57:27;2.83;;;2.63;;
938;SDS011;456;53.584;9.968;2022-08-21T11:00:06;3.07;;;2.77;;
938;SDS011;456;53.584;9.968;2022-08-21T11:02:49;3.00;;;2.50;;
938;SDS011;456;53.584;9.968;2022-08-21T11:06:02;2.70;;;2.10;;
938;SDS011;456;53.584;9.968;2022-08-21T11:08:41;2.40;;;2.20;;
938;SDS011;456;53.584;9.968;2022-08-21T11:11:16;2.80;;;2.50;;
938;SDS011;456;53.584;9.968;2022-08-21T11:13:55;2.63;;;2.40;;
938;SDS011;456;53.584;9.968;2022-08-21T11:16:33;2.83;;;2.47;;
938;SDS011;456;53.584;9.968;2022-08-21T11:27:17;3.33;;;2.50;;
938;SDS011;456;53.584;9.968;2022-08-21T11:30:10;2.93;;;2.27;;
938;SDS011;456;53.584;9.968;2022-08-21T11:43:41;2.20;;;2.00;;
938;SDS011;456;53.584;9.968;2022-08-21T11:49:19;2.70;;;2.50;;
938;SDS011;456;53.584;9.968;2022-08-21T11:57:19;1.90;;;1.80;;
938;SDS011;456;53.584;9.968;2022-08-21T12:02:19;2.30;;;2.10;;
938;SDS011;456;53.584;9.968;2022-08-21T12:04:58;2.23;;;1.70;;
938;SDS011;456;53.584;9.968;2022-08-21T12:07:46;1.90;;;1.80;;
938;SDS011;456;53.584;9.968;2022-08-21T12:10:16;2.70;;;2.17;;
938;SDS011;456;53.584;9.968;2022-08-21T12:12:45;2.93;;;2.30;;
938;SDS011;456;53.584;9.968;2022-08-21T12:18:07;1.77;;;1.63;;
938;SDS011;456;53.584;9.968;2022-08-21T12:20:58;2.13;;;1.93;;
938;SDS011;456;53.584;9.968;2022-08-21T12:23:28;2.33;;;2.00;;
938;SDS011;456;53.584;9.968;2022-08-21T12:28:25;2.50;;;2.30;;
938;SDS011;456;53.584;9.968;2022-08-21T12:30:52;2.47;;;2.27;;
938;SDS011;456;53.584;9.968;2022-08-21T12:35:52;1.77;;;1.67;;
938;SDS011;456;53.584;9.968;2022-08-21T12:41:24;1.87;;;1.73;;
938;SDS011;456;53.584;9.968;2022-08-21T12:44:00;1.80;;;1.70;;
938;SDS011;456;53.584;9.968;2022-08-21T12:46:38;1.87;;;1.77;;
938;SDS011;456;53.584;9.968;2022-08-21T12:49:14;2.40;;;2.10;;
938;SDS011;456;53.584;9.968;2022-08-21T12:51:50;2.00;;;1.90;;
938;SDS011;456;53.584;9.968;2022-08-21T12:54:28;2.53;;;2.20;;
938;SDS011;456;53.584;9.968;2022-08-21T12:56:59;1.80;;;1.70;;
938;SDS011;456;53.584;9.968;2022-08-21T12:59:27;2.40;;;2.20;;
938;SDS011;456;53.584;9.968;2022-08-21T13:01:54;1.80;;;1.70;;
938;SDS011;456;53.584;9.968;2022-08-21T13:04:22;1.70;;;1.60;;
938;SDS011;456;53.584;9.968;2022-08-21T13:07:04;2.17;;;1.97;;
938;SDS011;456;53.584;9.968;2022-08-21T13:09:44;3.30;;;2.10;;
938;SDS011;456;53.584;9.968;2022-08-21T13:12:14;1.70;;;1.60;;
938;SDS011;456;53.584;9.968;2022-08-21T13:14:43;2.07;;;1.97;;
938;SDS011;456;53.584;9.968;2022-08-21T13:17:11;1.97;;;1.87;;
938;SDS011;456;53.584;9.968;2022-08-21T13:19:38;2.60;;;1.87;;
938;SDS011;456;53.584;9.968;2022-08-21T13:22:05;2.27;;;1.90;;
938;SDS011;456;53.584;9.968;2022-08-21T13:24:38;1.87;;;1.77;;
938;SDS011;456;53.584;9.968;2022-08-21T13:27:14;2.03;;;1.93;;
938;SDS011;456;53.584;9.968;2022-08-21T13:30:03;1.80;;;1.70;;
938;SDS011;456;53.584;9.968;2022-08-21T13:32:43;2.00;;;1.83;;
938;SDS011;456;53.584;9.968;2022-08-21T13:37:47;2.87;;;2.23;;
938;SDS011;456;53.584;9.968;2022-08-21T13:40:20;2.60;;;2.33;;
938;SDS011;456;53.584;9.968;2022-08-21T13:42:51;1.60;;;1.50;;
938;SDS011;456;53.584;9.968;2022-08-21T13:45:29;1.97;;;1.87;;
938;SDS011;456;53.584;9.968;2022-08-21T13:47:56;2.30;;;2.10;;
938;SDS011;456;53.584;9.968;2022-08-21T13:50:24;2.30;;;2.10;;
938;SDS011;456;53.584;9.968;2022-08-21T13:52:58;3.70;;;2.43;;
938;SDS011;456;53.584;9.968;2022-08-21T13:55:42;2.10;;;2.00;;
938;SDS011;456;53.584;9.968;2022-08-21T13:58:09;2.30;;;2.10;;
938;SDS011;456;53.584;9.968;2022-08-21T14:00:49;3.23;;;1.90;;
938;SDS011;456;53.584;9.968;2022-08-21T14:03:23;2.23;;;2.03;;
938;SDS011;456;53.584;9.968;2022-08-21T14:06:10;2.00;;;1.90;;
938;SDS011;456;53.584;9.968;2022-08-21T14:08:39;3.07;;;2.20;;
938;SDS011;456;53.584;9.968;2022-08-21T14:11:09;2.23;;;1.93;;
938;SDS011;456;53.584;9.968;2022-08-21T14:13:41;2.50;;;2.23;;
938;SDS011;456;53.584;9.968;2022-08-21T14:16:17;2.30;;;2.10;;
938;SDS011;456;53.584;9.968;2022-08-21T14:18:46;2.50;;;2.30;;
938;SDS011;456;53.584;9.968;2022-08-21T14:21:22;2.10;;;2.00;;
938;SDS011;456;53.584;9.968;2022-08-21T14:26:52;2.60;;;1.90;;
938;SDS011;456;53.584;9.968;2022-08-21T14:29:22;2.07;;;1.97;;
938;SDS011;456;53.584;9.968;2022-08-21T14:31:53;2.10;;;2.00;;
938;SDS011;456;53.584;9.968;2022-08-21T14:34:27;2.07;;;1.97;;
938;SDS011;456;53.584;9.968;2022-08-21T14:36:54;2.27;;;2.07;;
938;SDS011;456;53.584;9.968;2022-08-21T14:39:20;2.20;;;2.10;;
938;SDS011;456;53.584;9.968;2022-08-21T14:41:46;2.13;;;1.90;;
938;SDS011;456;53.584;9.968;2022-08-21T14:44:13;2.23;;;2.03;;
938;SDS011;456;53.584;9.968;2022-08-21T14:46:40;2.50;;;2.00;;
938;SDS011;456;53.584;9.968;2022-08-21T14:49:06;1.90;;;1.80;;
938;SDS011;456;53.584;9.968;2022-08-21T14:51:32;2.13;;;1.80;;
938;SDS011;456;53.584;9.968;2022-08-21T14:53:58;2.23;;;2.03;;
938;SDS011;456;53.584;9.968;2022-08-21T14:56:25;2.40;;;2.20;;
938;SDS011;456;53.584;9.968;2022-08-21T14:58:55;2.53;;;1.83;;
938;SDS011;456;53.584;9.968;2022-08-21T15:01:28;2.40;;;2.20;;
938;SDS011;456;53.584;9.968;2022-08-21T15:03:53;2.30;;;2.10;;
938;SDS011;456;53.584;9.968;2022-08-21T15:06:19;1.90;;;1.80;;
938;SDS011;456;53.584;9.968;2022-08-21T15:08:46;2.00;;;1.90;;
938;SDS011;456;53.584;9.968;2022-08-21T15:11:13;2.07;;;1.87;;
938;SDS011;456;53.584;9.968;2022-08-21T15:13:42;2.00;;;1.90;;
938;SDS011;456;53.584;9.968;2022-08-21T15:16:09;2.30;;;2.10;;
938;SDS011;456;53.584;9.968;2022-08-21T15:18:36;2.53;;;2.33;;
938;SDS011;456;53.584;9.968;2022-08-21T15:21:02;2.00;;;1.90;;
938;SDS011;456;53.584;9.968;2022-08-21T15:23:28;2.00;;;1.90;;
938;SDS011;456;53.584;9.968;2022-08-21T15:25:53;2.40;;;2.20;;
938;SDS011;456;53.584;9.968;2022-08-21T15:28:22;2.17;;;1.97;;
938;SDS011;456;53.584;9.968;2022-08-21T15:30:48;3.00;;;2.03;;
938;SDS011;456;53.584;9.968;2022-08-21T15:33:15;2.23;;;2.03;;
938;SDS011;456;53.584;9.968;2022-08-21T15:35:41;1.90;;;1.80;;
938;SDS011;456;53.584;9.968;2022-08-21T15:38:06;2.40;;;2.20;;
938;SDS011;456;53.584;9.968;2022-08-21T15:40:33;2.20;;;2.00;;
938;SDS011;456;53.584;9.968;2022-08-21T15:43:00;1.90;;;1.80;;
938;SDS011;456;53.584;9.968;2022-08-21T15:45:28;1.97;;;1.87;;
938;SDS011;456;53.584;9.968;2022-08-21T15:47:53;3.30;;;2.20;;
938;SDS011;456;53.584;9.968;2022-08-21T15:50:20;2.60;;;2.40;;
938;SDS011;456;53.584;9.968;2022-08-21T15:52:47;2.00;;;1.90;;
938;SDS011;456;53.584;9.968;2022-08-21T15:55:13;2.20;;;2.00;;
938;SDS011;456;53.584;9.968;2022-08-21T15:57:42;2.23;;;2.00;;
938;SDS011;456;53.584;9.968;2022-08-21T16:00:20;2.40;;;2.20;;
938;SDS011;456;53.584;9.968;2022-08-21T16:02:49;2.17;;;1.97;;
938;SDS011;456;53.584;9.968;2022-08-21T16:05:18;2.07;;;1.97;;
938;SDS011;456;53.584;9.968;2022-08-21T16:07:45;2.00;;;1.90;;
938;SDS011;456;53.584;9.968;2022-08-21T16:10:12;2.40;;;2.20;;
938;SDS011;456;53.584;9.968;2022-08-21T16:12:43;2.10;;;2.00;;
938;SDS011;456;53.584;9.968;2022-08-21T16:15:13;1.90;;;1.80;;
938;SDS011;456;53.584;9.968;2022-08-21T16:17:41;2.27;;;2.10;;
938;SDS011;456;53.584;9.968;2022-08-21T16:20:12;1.93;;;1.83;;
938;SDS011;456;53.584;9.968;2022-08-21T16:22:40;2.23;;;2.00;;
938;SDS011;456;53.584;9.968;2022-08-21T16:25:07;2.30;;;2.10;;
938;SDS011;456;53.584;9.968;2022-08-21T16:27:33;1.97;;;1.87;;
938;SDS011;456;53.584;9.968;2022-08-21T16:30:00;2.60;;;2.30;;
938;SDS011;456;53.584;9.968;2022-08-21T16:32:26;2.20;;;2.10;;
938;SDS011;456;53.584;9.968;2022-08-21T16:34:53;2.20;;;2.00;;
938;SDS011;456;53.584;9.968;2022-08-21T16:37:19;2.10;;;2.00;;
938;SDS011;456;53.584;9.968;2022-08-21T16:39:46;1.77;;;1.67;;
938;SDS011;456;53.584;9.968;2022-08-21T16:42:13;2.67;;;2.20;;
938;SDS011;456;53.584;9.968;2022-08-21T16:44:42;1.80;;;1.70;;
938;SDS011;456;53.584;9.968;2022-08-21T16:47:08;2.10;;;1.90;;
938;SDS011;456;53.584;9.968;2022-08-21T16:49:34;2.20;;;2.00;;
938;SDS011;456;53.584;9.968;2022-08-21T16:52:00;1.83;;;1.73;;
938;SDS011;456;53.584;9.968;2022-08-21T16:54:27;2.03;;;1.70;;
938;SDS011;456;53.584;9.968;2022-08-21T16:56:54;1.97;;;1.87;;
938;SDS011;456;53.584;9.968;2022-08-21T16:59:21;2.03;;;1.80;;
938;SDS011;456;53.584;9.968;2022-08-21T17:01:47;1.63;;;1.53;;
938;SDS011;456;53.584;9.968;2022-08-21T17:04:13;2.17;;;1.97;;
938;SDS011;456;53.584;9.968;2022-08-21T17:06:38;1.80;;;1.70;;
938;SDS011;456;53.584;9.968;2022-08-21T17:09:04;2.20;;;2.00;;
938;SDS011;456;53.584;9.968;2022-08-21T17:11:33;1.80;;;1.70;;
938;SDS011;456;53.584;9.968;2022-08-21T17:14:02;1.90;;;1.70;;
938;SDS011;456;53.584;9.968;2022-08-21T17:16:30;2.37;;;2.17;;
938;SDS011;456;53.584;9.968;2022-08-21T17:18:56;1.93;;;1.83;;
938;SDS011;456;53.584;9.968;2022-08-21T17:21:22;2.00;;;1.80;;
938;SDS011;456;53.584;9.968;2022-08-21T17:23:48;1.87;;;1.77;;
938;SDS011;456;53.584;9.968;2022-08-21T17:26:14;2.50;;;1.90;;
938;SDS011;456;53.584;9.968;2022-08-21T17:28:41;1.43;;;1.33;;
938;SDS011;456;53.584;9.968;2022-08-21T17:31:08;1.70;;;1.60;;
938;SDS011;456;53.584;9.968;2022-08-21T17:33:36;1.70;;;1.60;;
938;SDS011;456;53.584;9.968;2022-08-21T17:36:15;1.73;;;1.63;;